Time;durP1;ratioP1;P1;durP2;ratioP2;P2;SDS_P1;SDS_P2;PMS_P1;PMS_P2;Temp;Humidity;BMP_temperature;BMP_pressure;BME280_temperature;BME280_humidity;BME280_pressure;Samples;Min_cycle;Max_cycle;Signal;HPM_P1;HPM_P2
2023/06/16 00:01:36;;;;;;;4.38;4.07;;;;;;;19.02;49.03;95577.97;6124977;23;20176;-87
2023/06/16 00:04:04;;;;;;;4.80;4.20;;;;;;;18.96;48.91;95579.66;6124616;23;20278;-87
2023/06/16 00:07:19;;;;;;;4.82;4.22;;;;;;;18.92;49.24;95578.53;6124239;23;20175;-87
2023/06/16 00:10:28;;;;;;;5.57;4.13;;;;;;;18.89;49.19;95572.97;6113553;23;20239;-87
2023/06/16 00:13:16;;;;;;;4.97;4.45;;;;;;;18.97;49.00;95586.47;6034543;23;20200;-87
2023/06/16 00:18:53;;;;;;;4.72;4.20;;;;;;;18.97;48.93;95583.88;6123764;23;20168;-87
2023/06/16 00:24:32;;;;;;;5.40;4.43;;;;;;;18.88;49.17;95584.44;6006922;23;20270;-87
2023/06/16 00:39:31;;;;;;;6.93;4.45;;;;;;;18.71;49.59;95576.50;6101881;23;20254;-87
2023/06/16 00:45:34;;;;;;;4.80;4.40;;;;;;;18.68;49.46;95570.94;6120243;23;20207;-87
2023/06/16 00:48:02;;;;;;;5.20;4.70;;;;;;;18.56;49.45;95576.13;6121185;23;20182;-87
2023/06/16 00:53:18;;;;;;;5.00;4.60;;;;;;;18.50;50.14;95571.81;6120705;23;20866;-87
2023/06/16 00:55:46;;;;;;;5.18;4.70;;;;;;;18.48;49.59;95579.06;6123669;23;20263;-87
2023/06/16 00:58:12;;;;;;;5.35;4.75;;;;;;;18.44;50.00;95573.53;6124542;23;20706;-86
2023/06/16 01:00:42;;;;;;;5.63;4.80;;;;;;;18.53;49.65;95568.75;6123474;23;20179;-87
2023/06/16 01:03:36;;;;;;;6.60;5.35;;;;;;;18.56;50.03;95568.31;6123716;23;20578;-87
2023/06/16 01:23:35;;;;;;;5.88;5.28;;;;;;;18.49;49.92;95562.41;5980700;23;20628;-89
2023/06/16 01:39:29;;;;;;;;;;;;;;;;;;;;;
2023/06/16 01:48:18;;;;;;;6.65;4.97;;;;;;;18.16;50.22;95557.72;6122904;23;20258;-88
2023/06/16 01:53:49;;;;;;;5.38;4.97;;;;;;;18.16;50.34;95566.34;6119416;23;20198;-87
2023/06/16 02:03:22;;;;;;;5.68;5.18;;;;;;;17.92;51.31;95564.69;6072204;23;20179;-88
2023/06/16 02:09:30;;;;;;;5.45;5.03;;;;;;;17.81;51.12;95562.84;6072735;23;20207;-88
2023/06/16 02:12:28;;;;;;;5.82;5.10;;;;;;;17.72;51.58;95558.97;6112471;23;20207;-88
2023/06/16 02:14:56;;;;;;;10.88;5.68;;;;;;;17.70;51.56;95566.22;6032370;23;20929;-89
2023/06/16 02:18:02;;;;;;;7.30;5.30;;;;;;;17.68;51.89;95563.84;6032928;23;20185;-89
2023/06/16 02:21:12;;;;;;;5.60;5.20;;;;;;;17.63;51.52;95563.66;6109781;23;20230;-88
2023/06/16 02:27:46;;;;;;;;;;;;;;;;;;;;;
2023/06/16 02:30:23;;;;;;;6.43;5.40;;;;;;;17.66;51.46;95563.25;6004336;23;20507;-88
2023/06/16 02:33:33;;;;;;;6.75;5.38;;;;;;;17.73;51.58;95563.16;6119437;23;20195;-88
2023/06/16 02:36:17;;;;;;;5.97;5.05;;;;;;;17.79;51.31;95557.88;6098473;23;20238;-88
2023/06/16 02:38:53;;;;;;;5.32;4.93;;;;;;;17.77;51.55;95557.28;6033631;23;20181;-88
2023/06/16 02:48:35;;;;;;;5.30;4.80;;;;;;;17.49;52.19;95572.66;6071793;23;20187;-89
2023/06/16 02:51:25;;;;;;;5.95;5.30;;;;;;;17.35;52.56;95576.44;6079343;23;20175;-88
2023/06/16 02:54:00;;;;;;;9.88;5.43;;;;;;;17.35;52.69;95581.63;6120511;23;20214;-88
2023/06/16 02:56:42;;;;;;;5.80;5.30;;;;;;;17.33;52.91;95581.84;6123922;23;20179;-88
2023/06/16 02:59:31;;;;;;;5.57;5.18;;;;;;;17.30;52.99;95578.91;6124633;23;20160;-88
2023/06/16 03:08:44;;;;;;;5.45;5.05;;;;;;;17.11;53.34;95567.72;6075306;23;20619;-88
2023/06/16 03:20:45;;;;;;;5.97;5.43;;;;;;;17.27;52.84;95570.53;6108963;23;20550;-89
2023/06/16 03:26:04;;;;;;;5.95;5.45;;;;;;;17.44;52.78;95570.72;6002412;23;20184;-88
2023/06/16 03:29:25;;;;;;;6.28;5.30;;;;;;;17.50;52.57;95574.25;5999794;23;20205;-88
2023/06/16 03:32:19;;;;;;;6.47;5.82;;;;;;;17.44;52.27;95578.53;5978867;23;20281;-88
2023/06/16 03:35:04;;;;;;;7.25;5.43;;;;;;;17.44;52.44;95580.34;6123794;23;20254;-88
2023/06/16 03:37:59;;;;;;;8.73;5.40;;;;;;;17.39;52.59;95574.97;6124219;23;20848;-89
2023/06/16 03:40:26;;;;;;;7.10;5.60;;;;;;;17.35;52.56;95582.44;6123911;23;20186;-88
2023/06/16 03:45:54;;;;;;;5.97;5.47;;;;;;;17.35;52.46;95587.63;6121434;23;20175;-88
2023/06/16 03:48:22;;;;;;;6.10;5.57;;;;;;;17.36;52.40;95591.81;6122033;23;20172;-88
2023/06/16 03:51:09;;;;;;;5.90;5.30;;;;;;;17.35;52.48;95585.03;6123056;23;20529;-88
2023/06/16 03:53:35;;;;;;;6.38;5.30;;;;;;;17.39;52.31;95594.00;6112819;23;20203;-88
2023/06/16 03:56:07;;;;;;;5.80;5.30;;;;;;;17.39;52.49;95594.00;6124146;23;20168;-88
2023/06/16 04:01:39;;;;;;;9.27;5.57;;;;;;;17.39;52.88;95601.81;6100477;23;20189;-89
2023/06/16 04:07:17;;;;;;;6.15;5.57;;;;;;;17.39;53.79;95611.41;6068634;23;20815;-88
2023/06/16 04:09:49;;;;;;;5.80;5.28;;;;;;;17.39;53.52;95617.41;6124540;23;20180;-88
2023/06/16 04:12:53;;;;;;;7.78;5.45;;;;;;;17.44;54.19;95620.19;6123655;23;20714;-88
2023/06/16 04:15:38;;;;;;;;;;;;;;;;;;;;;
2023/06/16 04:21:05;;;;;;;6.85;5.60;;;;;;;17.52;54.64;95611.25;6094117;23;20179;-88
2023/06/16 04:23:35;;;;;;;6.00;5.50;;;;;;;17.58;54.04;95613.00;6096001;23;20251;-88
2023/06/16 04:29:05;;;;;;;6.53;5.78;;;;;;;17.70;55.11;95610.50;6093334;23;20180;-88
2023/06/16 04:32:20;;;;;;;8.02;5.90;;;;;;;17.81;55.19;95615.75;6094723;23;20182;-88
2023/06/16 04:39:06;;;;;;;6.43;5.82;;;;;;;17.92;55.83;95616.78;5986736;23;20205;-88
2023/06/16 04:50:58;;;;;;;6.72;5.95;;;;;;;18.05;55.64;95616.63;6094346;23;20644;-88
2023/06/16 04:53:28;;;;;;;6.68;6.13;;;;;;;18.12;55.33;95612.09;6095366;23;20197;-88
2023/06/16 04:56:31;;;;;;;6.55;5.95;;;;;;;18.22;55.32;95617.56;6094307;23;20165;-88
2023/06/16 05:02:36;;;;;;;6.90;6.10;;;;;;;18.53;55.16;95615.69;5997158;23;20557;-89
2023/06/16 05:05:29;;;;;;;6.38;5.88;;;;;;;18.62;54.62;95620.41;6093364;23;20202;-88
2023/06/16 05:08:13;;;;;;;;;;;;;;;;;;;;;
2023/06/16 05:18:11;;;;;;;8.25;6.10;;;;;;;18.97;54.68;95617.00;6091293;23;20180;-88
2023/06/16 05:24:02;;;;;;;;;;;;;;;;;;;;;
2023/06/16 05:29:38;;;;;;;6.78;5.80;;;;;;;19.10;54.14;95615.94;6029871;23;20177;-89
2023/06/16 05:41:51;;;;;;;6.32;5.72;;;;;;;19.16;53.67;95620.28;5879012;24;20180;-87
2023/06/16 05:44:59;;;;;;;6.05;5.45;;;;;;;19.22;53.43;95621.97;6012241;23;20228;-88
2023/06/16 05:47:49;;;;;;;8.95;5.80;;;;;;;19.21;52.99;95620.38;6099009;23;20220;-88
2023/06/16 05:56:34;;;;;;;7.22;5.53;;;;;;;19.54;52.22;95627.59;6006068;23;20210;-86
2023/06/16 05:59:31;;;;;;;6.00;5.40;;;;;;;19.60;52.26;95619.66;6009176;23;20241;-86
2023/06/16 06:02:19;;;;;;;7.68;6.03;;;;;;;19.72;51.51;95621.41;6088160;23;20179;-87
2023/06/16 06:05:24;;;;;;;7.35;5.53;;;;;;;19.81;51.77;95623.44;6117890;23;20211;-87
2023/06/16 06:07:53;;;;;;;20.55;16.17;;;;;;;19.83;51.85;95625.81;6037623;23;20177;-88
2023/06/16 06:10:19;;;;;;;9.02;5.95;;;;;;;20.17;54.34;95634.53;6120921;23;20183;-87
2023/06/16 06:12:47;;;;;;;9.15;5.63;;;;;;;20.55;52.49;95626.06;6122760;23;20207;-86
2023/06/16 06:15:17;;;;;;;6.03;5.40;;;;;;;20.78;49.85;95628.50;6124926;23;20282;-87
2023/06/16 06:17:46;;;;;;;7.30;5.28;;;;;;;20.83;49.37;95633.81;6126473;23;20176;-87
2023/06/16 06:20:21;;;;;;;7.78;5.05;;;;;;;20.64;49.85;95625.41;6124271;23;20184;-87
2023/06/16 06:23:03;;;;;;;;;;;;;;;;;;;;;
2023/06/16 06:25:32;;;;;;;11.65;10.55;;;;;;;20.61;50.17;95636.34;6125267;23;20227;-86
2023/06/16 06:28:00;;;;;;;9.02;8.13;;;;;;;20.65;49.69;95639.28;6126285;23;20182;-87
2023/06/16 06:30:29;;;;;;;6.38;5.78;;;;;;;20.65;49.68;95631.44;6128397;23;20184;-87
2023/06/16 06:35:43;;;;;;;5.50;5.10;;;;;;;20.69;49.21;95643.00;6126279;23;20202;-88
2023/06/16 06:38:12;;;;;;;6.97;5.10;;;;;;;20.84;48.99;95638.00;6127330;23;20203;-88
2023/06/16 06:40:39;;;;;;;6.63;5.03;;;;;;;20.95;49.12;95641.59;6127689;23;20226;-87
2023/06/16 06:57:38;;;;;;;5.55;4.47;;;;;;;21.31;47.28;95648.94;5981104;24;20598;-86
2023/06/16 07:00:21;;;;;;;9.07;4.65;;;;;;;21.41;47.55;95647.47;6056796;23;20181;-86
2023/06/16 07:02:47;;;;;;;7.93;4.55;;;;;;;21.50;47.12;95643.41;6068259;23;20165;-88
2023/06/16 07:05:26;;;;;;;5.60;4.47;;;;;;;21.56;47.01;95642.41;6090412;23;20287;-87
2023/06/16 07:07:59;;;;;;;5.90;4.95;;;;;;;21.56;45.60;95645.81;6131032;23;20168;-88
2023/06/16 07:10:30;;;;;;;5.15;4.65;;;;;;;21.61;46.18;95639.84;6131617;23;20164;-88
2023/06/16 07:13:29;;;;;;;6.03;4.70;;;;;;;21.62;45.77;95652.72;6132239;23;20179;-88
2023/06/16 07:16:03;;;;;;;5.00;4.60;;;;;;;21.68;45.42;95648.34;6130809;23;20711;-88
2023/06/16 07:18:30;;;;;;;4.85;4.40;;;;;;;21.73;45.82;95648.41;6130190;23;20159;-88
2023/06/16 07:21:21;;;;;;;5.78;4.70;;;;;;;21.82;44.99;95652.16;6129856;23;20176;-87
2023/06/16 07:24:05;;;;;;;6.18;4.60;;;;;;;21.87;44.67;95648.81;6132533;23;20200;-87
2023/06/16 07:26:32;;;;;;;8.65;4.63;;;;;;;21.87;44.68;95656.69;6132725;23;20242;-88
2023/06/16 07:29:11;;;;;;;5.10;4.22;;;;;;;21.94;45.04;95657.25;6131106;23;20525;-87
2023/06/16 07:31:47;;;;;;;4.68;4.20;;;;;;;22.05;44.32;95665.03;6130957;23;20190;-88
2023/06/16 07:34:14;;;;;;;4.90;4.50;;;;;;;22.10;44.00;95661.69;6129982;23;20281;-88
2023/06/16 07:36:40;;;;;;;5.80;4.30;;;;;;;22.15;43.62;95659.09;6125662;23;20172;-87
2023/06/16 07:39:57;;;;;;;;;;;;;;;;;;;;;
2023/06/16 07:42:27;;;;;;;4.40;3.97;;;;;;;22.30;43.73;95653.22;6038774;23;20178;-88
2023/06/16 07:48:21;;;;;;;4.20;3.90;;;;;;;22.31;43.46;95660.06;6127600;23;20275;-89
2023/06/16 07:50:53;;;;;;;5.75;4.35;;;;;;;22.51;43.58;95649.75;6128036;23;20172;-87
2023/06/16 07:53:19;;;;;;;4.13;3.83;;;;;;;22.68;42.58;95654.88;6127467;23;20710;-87
2023/06/16 07:59:06;;;;;;;4.28;3.88;;;;;;;22.83;41.68;95648.97;6125890;23;20178;-87
2023/06/16 08:05:02;;;;;;;4.82;3.90;;;;;;;22.92;40.64;95642.97;6096237;23;20688;-87
2023/06/16 08:07:41;;;;;;;4.60;4.10;;;;;;;22.93;41.18;95643.78;6125493;23;20172;-87
2023/06/16 08:10:11;;;;;;;5.03;4.10;;;;;;;23.05;41.20;95645.19;6126313;23;20152;-87
2023/06/16 08:12:37;;;;;;;5.13;4.20;;;;;;;23.19;42.29;95639.47;6123537;23;20172;-87
2023/06/16 08:15:05;;;;;;;5.97;4.40;;;;;;;23.28;40.57;95645.84;6126338;23;20223;-86
2023/06/16 08:17:32;;;;;;;3.92;3.63;;;;;;;23.41;39.63;95634.88;6126480;23;20175;-87
2023/06/16 08:20:18;;;;;;;5.35;4.30;;;;;;;23.51;39.35;95628.88;6127732;23;20179;-87
2023/06/16 08:22:46;;;;;;;5.75;4.15;;;;;;;23.64;38.78;95628.44;6122671;23;20186;-88
2023/06/16 08:25:26;;;;;;;4.50;4.10;;;;;;;23.66;38.85;95624.50;6127755;23;20203;-87
2023/06/16 08:28:03;;;;;;;4.45;3.70;;;;;;;23.82;38.94;95632.44;6126134;23;20194;-87
2023/06/16 08:31:02;;;;;;;;;;;;;;;;;;;;;
2023/06/16 08:36:46;;;;;;;4.00;3.70;;;;;;;24.11;37.57;95629.09;6039154;23;20261;-86
2023/06/16 08:39:18;;;;;;;4.32;3.92;;;;;;;24.11;36.88;95618.56;6118855;23;20254;-87
2023/06/16 08:41:58;;;;;;;4.72;4.05;;;;;;;24.23;36.97;95626.22;6128051;23;20179;-87
2023/06/16 08:44:25;;;;;;;4.38;3.70;;;;;;;24.16;37.77;95628.31;6126468;23;20199;-87
2023/06/16 08:46:57;;;;;;;4.63;4.18;;;;;;;24.40;37.75;95615.50;6127528;23;20201;-88
2023/06/16 08:49:24;;;;;;;4.35;3.95;;;;;;;24.45;36.29;95621.53;6129180;23;20542;-87
2023/06/16 08:51:51;;;;;;;4.05;3.63;;;;;;;24.26;37.01;95627.56;6128675;23;20179;-88
2023/06/16 08:54:24;;;;;;;4.18;3.72;;;;;;;24.12;36.71;95614.09;6129397;23;20200;-87
2023/06/16 08:56:52;;;;;;;4.88;4.10;;;;;;;23.95;37.01;95611.69;6129858;23;20171;-87
2023/06/16 08:59:27;;;;;;;6.10;4.00;;;;;;;24.05;37.25;95616.97;6131354;23;20189;-87
2023/06/16 09:02:07;;;;;;;4.72;3.30;;;;;;;24.08;37.06;95615.66;6130624;23;20175;-87
2023/06/16 09:04:34;;;;;;;5.32;3.80;;;;;;;23.87;36.68;95603.50;6130901;23;20202;-88
2023/06/16 09:07:01;;;;;;;5.20;4.80;;;;;;;23.75;37.28;95614.28;6128551;23;20180;-87
2023/06/16 09:09:33;;;;;;;4.72;3.97;;;;;;;23.62;37.86;95605.03;6131482;23;20183;-89
2023/06/16 09:12:24;;;;;;;4.32;3.75;;;;;;;23.46;37.56;95605.22;6131174;23;20238;-87
2023/06/16 09:14:51;;;;;;;4.07;3.78;;;;;;;23.38;37.82;95609.91;6093517;23;20213;-86
2023/06/16 09:17:33;;;;;;;4.07;3.67;;;;;;;23.68;37.27;95598.72;6128673;23;20199;-87
2023/06/16 09:20:00;;;;;;;8.73;3.92;;;;;;;23.70;36.81;95601.88;6126165;23;20167;-88
2023/06/16 09:22:27;;;;;;;5.50;3.90;;;;;;;24.00;36.80;95592.50;6129421;23;20179;-87
2023/06/16 09:25:21;;;;;;;7.20;3.97;;;;;;;24.11;36.51;95594.09;6099130;23;20222;-89
2023/06/16 09:28:20;;;;;;;6.28;4.40;;;;;;;24.16;36.35;95590.69;6116090;23;20215;-86
2023/06/16 09:30:46;;;;;;;6.93;4.30;;;;;;;24.07;36.91;95582.50;6129905;23;20191;-86
2023/06/16 09:33:28;;;;;;;5.57;4.07;;;;;;;23.86;37.34;95592.19;6126099;23;20210;-87
2023/06/16 09:35:57;;;;;;;5.85;3.70;;;;;;;23.80;37.52;95592.47;6123550;23;20203;-89
2023/06/16 09:38:32;;;;;;;7.22;3.88;;;;;;;23.71;36.55;95585.06;6123453;23;20171;-88
2023/06/16 09:41:10;;;;;;;5.05;4.00;;;;;;;23.67;36.05;95599.78;6127768;23;20160;-89
2023/06/16 09:48:51;;;;;;;5.90;3.90;;;;;;;23.83;36.94;95576.19;6160293;23;20179;-86
2023/06/16 09:51:26;;;;;;;5.10;4.20;;;;;;;24.13;36.57;95570.16;6161182;23;20213;-88
2023/06/16 09:54:08;;;;;;;6.18;5.70;;;;;;;24.21;36.42;95572.28;6160412;23;20221;-88
2023/06/16 09:59:26;;;;;;;4.88;4.07;;;;;;;23.85;38.27;95576.72;6155787;23;20179;-89
2023/06/16 10:02:21;;;;;;;4.88;4.47;;;;;;;23.55;37.99;95578.19;6157397;23;20209;-88
2023/06/16 10:21:19;;;;;;;5.45;4.10;;;;;;;24.94;32.99;95546.44;5956899;23;20255;-88
2023/06/16 10:23:50;;;;;;;4.18;3.72;;;;;;;25.27;32.48;95534.50;6058879;23;20196;-88
2023/06/16 10:29:38;;;;;;;4.00;3.65;;;;;;;26.02;31.75;95543.84;6060062;23;20176;-88
2023/06/16 10:32:26;;;;;;;4.10;3.65;;;;;;;26.04;30.16;95546.22;6047673;23;20259;-88
2023/06/16 10:35:30;;;;;;;4.05;3.63;;;;;;;26.25;29.81;95542.38;6109346;23;20218;-88
2023/06/16 10:41:29;;;;;;;4.93;4.43;;;;;;;26.52;28.16;95547.22;6111790;23;20178;-90
2023/06/16 10:44:05;;;;;;;;;;;;;;;;;;;;;
2023/06/16 10:46:37;;;;;;;8.02;3.72;;;;;;;26.88;27.68;95534.44;6119919;23;20206;-88
2023/06/16 10:49:20;;;;;;;4.15;3.78;;;;;;;27.12;27.37;95529.19;6121047;23;20239;-89
2023/06/16 10:52:12;;;;;;;4.20;3.80;;;;;;;27.17;27.01;95527.25;6121039;23;20226;-89
2023/06/16 10:55:07;;;;;;;4.07;3.78;;;;;;;27.38;27.05;95533.09;6121398;23;20222;-88
2023/06/16 11:07:03;;;;;;;3.85;3.55;;;;;;;25.65;28.72;95540.94;6080537;23;20257;-89
2023/06/16 11:12:16;;;;;;;4.13;3.70;;;;;;;25.88;29.16;95542.13;6120890;23;20179;-88
2023/06/16 11:14:55;;;;;;;;;;;;;;;;;;;;;
2023/06/16 11:17:22;;;;;;;4.00;3.70;;;;;;;25.80;29.01;95557.44;6112955;23;20258;-88
2023/06/16 11:19:53;;;;;;;15.50;11.63;;;;;;;26.20;28.42;95546.91;6112998;23;20182;-88
2023/06/16 11:22:27;;;;;;;7.07;5.20;;;;;;;26.58;26.99;95555.84;6122965;23;20172;-88
2023/06/16 11:24:57;;;;;;;5.50;3.55;;;;;;;26.89;27.81;95543.94;6123603;23;20295;-88
2023/06/16 11:27:32;;;;;;;6.47;3.60;;;;;;;27.12;27.13;95545.06;6124721;23;20190;-88
2023/06/16 11:30:22;;;;;;;6.20;3.60;;;;;;;27.17;26.84;95535.19;6123874;23;20246;-89
2023/06/16 11:32:59;;;;;;;5.95;3.60;;;;;;;27.01;27.85;95536.44;6124344;23;20168;-87
2023/06/16 11:35:35;;;;;;;5.90;3.88;;;;;;;26.88;27.21;95547.66;6123477;23;20230;-88
2023/06/16 11:38:01;;;;;;;8.23;4.00;;;;;;;27.12;26.30;95539.78;6125322;23;20504;-88
2023/06/16 11:40:36;;;;;;;8.25;3.92;;;;;;;27.28;25.92;95543.03;6123832;23;20172;-87
2023/06/16 11:43:18;;;;;;;12.63;4.78;;;;;;;27.32;25.90;95534.25;6122820;23;20163;-88
2023/06/16 11:45:45;;;;;;;5.20;3.70;;;;;;;27.46;26.36;95529.81;6123726;23;20168;-88
2023/06/16 11:48:25;;;;;;;5.13;3.58;;;;;;;27.62;25.75;95530.44;6124365;23;20179;-88
2023/06/16 11:50:55;;;;;;;5.47;3.72;;;;;;;27.61;25.66;95533.38;6122631;23;20176;-89
2023/06/16 11:53:24;;;;;;;7.45;3.55;;;;;;;27.48;26.46;95534.84;6123860;23;20278;-89
2023/06/16 11:56:00;;;;;;;8.55;3.95;;;;;;;27.07;25.63;95527.38;6122601;23;20195;-88
2023/06/16 11:58:36;;;;;;;4.55;3.90;;;;;;;26.73;26.58;95532.75;6122329;23;20465;-88
2023/06/16 12:01:13;;;;;;;6.60;5.97;;;;;;;26.55;27.54;95536.09;6123599;23;20596;-88
2023/06/16 12:03:47;;;;;;;6.85;5.22;;;;;;;26.58;28.20;95543.44;6112469;23;21984;-86
2023/06/16 12:06:19;;;;;;;4.32;3.90;;;;;;;26.90;28.29;95540.25;6122181;23;20234;-86
2023/06/16 12:08:50;;;;;;;4.72;4.00;;;;;;;27.24;27.77;95542.78;6123036;23;20159;-86
2023/06/16 12:11:21;;;;;;;4.45;3.70;;;;;;;27.41;27.13;95524.59;6122459;23;20168;-88
2023/06/16 12:14:04;;;;;;;5.78;4.13;;;;;;;27.11;26.92;95532.91;6122132;23;20195;-89
2023/06/16 12:16:33;;;;;;;4.15;3.85;;;;;;;26.73;27.44;95530.09;6123504;23;20183;-86
2023/06/16 12:19:02;;;;;;;7.65;4.18;;;;;;;26.38;28.38;95528.56;6122983;23;20710;-87
2023/06/16 12:21:45;;;;;;;4.05;3.65;;;;;;;26.14;28.34;95527.69;6123455;23;20187;-86
2023/06/16 12:24:33;;;;;;;4.95;3.70;;;;;;;26.00;27.85;95532.78;6121894;23;20766;-90
2023/06/16 12:27:01;;;;;;;4.95;3.80;;;;;;;26.46;28.15;95530.63;6122707;23;20179;-88
2023/06/16 12:29:29;;;;;;;5.65;3.85;;;;;;;26.69;27.51;95523.00;6121968;23;20218;-89
2023/06/16 12:31:58;;;;;;;5.65;4.10;;;;;;;27.04;27.63;95527.94;6121826;23;20235;-87
2023/06/16 12:34:26;;;;;;;4.20;3.72;;;;;;;27.18;26.89;95525.41;6120874;23;20508;-88
2023/06/16 12:37:36;;;;;;;5.82;3.63;;;;;;;27.34;26.10;95532.06;6122722;23;20186;-87
2023/06/16 12:43:31;;;;;;;4.65;3.80;;;;;;;27.93;25.96;95522.84;6120111;23;20171;-87
2023/06/16 12:46:03;;;;;;;4.18;3.70;;;;;;;28.02;24.85;95523.78;6123550;23;20230;-89
2023/06/16 12:48:33;;;;;;;8.10;4.05;;;;;;;27.82;24.73;95516.13;6122635;23;20514;-89
2023/06/16 12:51:21;;;;;;;4.47;4.00;;;;;;;27.58;25.67;95510.13;6121767;23;20180;-88
2023/06/16 12:53:48;;;;;;;5.15;3.88;;;;;;;27.31;26.82;95523.94;6115776;23;20270;-89
2023/06/16 12:56:15;;;;;;;5.00;3.78;;;;;;;26.97;27.11;95526.69;6121226;23;20238;-89
2023/06/16 12:58:42;;;;;;;4.72;4.22;;;;;;;26.67;26.54;95525.16;6120644;23;20191;-89
2023/06/16 13:01:13;;;;;;;5.32;3.67;;;;;;;26.42;26.36;95521.66;6121341;23;20179;-88
2023/06/16 13:03:46;;;;;;;4.07;3.78;;;;;;;26.09;26.18;95517.16;6120409;23;20199;-89
2023/06/16 13:06:13;;;;;;;35.75;32.42;;;;;;;25.91;26.51;95521.25;6121257;23;20163;-89
2023/06/16 13:11:20;;;;;;;7.05;4.00;;;;;;;25.85;26.93;95521.56;6117509;23;20538;-88
2023/06/16 13:13:50;;;;;;;6.72;4.00;;;;;;;26.35;26.47;95517.78;6120769;23;20254;-88
2023/06/16 13:16:18;;;;;;;3.88;3.58;;;;;;;26.81;25.45;95512.84;6120811;23;20509;-90
2023/06/16 13:19:10;;;;;;;7.15;3.97;;;;;;;27.26;25.00;95508.13;6120308;23;20184;-89
2023/06/16 13:21:37;;;;;;;5.88;3.88;;;;;;;27.45;24.90;95504.44;6120578;23;20164;-89
2023/06/16 13:24:48;;;;;;;5.75;4.40;;;;;;;27.06;24.60;95504.66;6120110;23;20269;-89
2023/06/16 13:27:22;;;;;;;5.85;4.20;;;;;;;26.68;25.48;95492.38;6118133;23;20176;-90
2023/06/16 13:29:50;;;;;;;4.53;4.10;;;;;;;26.45;25.56;95500.00;6120051;23;20948;-89
2023/06/16 13:32:33;;;;;;;7.07;4.03;;;;;;;26.60;25.58;95491.13;6119795;23;20228;-89
2023/06/16 13:35:00;;;;;;;5.82;4.13;;;;;;;27.06;25.75;95493.31;6105882;23;20246;-89
2023/06/16 13:37:44;;;;;;;;;;;;;;;;;;;;;
2023/06/16 13:40:44;;;;;;;;;;;;;;;;;;;;;
2023/06/16 13:43:20;;;;;;;7.40;4.32;;;;;;;26.73;25.87;95494.97;6118697;23;20172;-89
2023/06/16 13:45:47;;;;;;;4.88;3.92;;;;;;;26.35;26.28;95486.09;6120457;23;20634;-86
2023/06/16 13:48:15;;;;;;;5.05;4.50;;;;;;;26.22;26.56;95489.34;6122008;23;20175;-89
2023/06/16 13:51:12;;;;;;;5.25;4.22;;;;;;;26.03;27.27;95484.75;6120748;23;20179;-89
2023/06/16 13:53:46;;;;;;;6.45;4.18;;;;;;;25.90;27.05;95488.03;6120666;23;20651;-88
2023/06/16 13:56:15;;;;;;;10.13;8.57;;;;;;;26.04;27.05;95488.16;6119812;23;20305;-89
2023/06/16 13:58:44;;;;;;;10.32;9.38;;;;;;;26.31;26.70;95488.50;6118111;23;20187;-89
2023/06/16 14:01:31;;;;;;;;;;;;;;;;;;;;;
2023/06/16 14:06:46;;;;;;;5.63;4.38;;;;;;;26.10;27.13;95484.44;6115545;23;20171;-89
2023/06/16 14:09:18;;;;;;;4.65;4.32;;;;;;;26.01;27.01;95489.50;6119440;23;20672;-88
2023/06/16 14:12:31;;;;;;;5.40;4.90;;;;;;;25.78;27.71;95498.16;6120368;23;20250;-90
2023/06/16 14:14:58;;;;;;;4.60;4.20;;;;;;;25.76;27.95;95495.78;6113973;23;20686;-89
2023/06/16 14:17:38;;;;;;;5.13;4.63;;;;;;;25.98;27.86;95500.59;6120290;23;20650;-89
2023/06/16 14:20:32;;;;;;;4.90;4.40;;;;;;;26.08;27.71;95484.72;6120777;23;20167;-89
2023/06/16 14:23:30;;;;;;;7.18;6.53;;;;;;;26.12;27.30;95488.38;6063729;23;20181;-89
2023/06/16 14:26:20;;;;;;;11.38;10.27;;;;;;;26.09;27.55;95485.50;6090945;23;20621;-89
2023/06/16 14:35:12;;;;;;;4.57;4.18;;;;;;;25.90;28.05;95495.16;6090008;23;20307;-89
2023/06/16 14:37:43;;;;;;;6.68;4.55;;;;;;;25.78;27.80;95495.50;6122811;23;20166;-89
2023/06/16 14:40:22;;;;;;;4.45;4.15;;;;;;;25.67;28.18;95496.63;6122438;23;20180;-88
2023/06/16 14:45:46;;;;;;;4.78;4.25;;;;;;;25.70;28.84;95502.13;6062969;23;20212;-89
2023/06/16 15:12:56;;;;;;;17.67;15.98;;;;;;;25.67;28.24;95502.69;6130784;23;20261;-88
2023/06/16 15:43:51;;;;;;;7.57;5.35;;;;;;;25.78;30.01;95488.38;5984982;23;20279;-88
2023/06/16 16:06:49;;;;;;;;;;;;;;;;;;;;;
2023/06/16 16:12:01;;;;;;;4.35;3.75;;;;;;;25.71;30.09;95501.06;6151539;23;20178;-93
2023/06/16 16:24:53;;;;;;;;;;;;;;;;;;;;;
2023/06/16 16:40:22;;;;;;;6.82;5.28;;;;;;;25.55;30.07;95488.22;6114534;23;20175;-90
2023/06/16 16:42:55;;;;;;;5.05;4.25;;;;;;;25.48;30.52;95491.16;6123216;23;20187;-89
2023/06/16 16:45:33;;;;;;;6.45;5.28;;;;;;;25.29;30.49;95492.84;6121749;23;20207;-88
2023/06/16 16:48:16;;;;;;;6.53;3.90;;;;;;;25.21;29.89;95502.09;6123551;23;20279;-89
2023/06/16 16:50:55;;;;;;;4.72;4.32;;;;;;;25.05;29.83;95492.69;6125365;23;20175;-88
2023/06/16 16:53:26;;;;;;;6.43;4.30;;;;;;;25.03;30.52;95505.31;6124986;23;20607;-90
2023/06/16 16:56:27;;;;;;;7.22;4.10;;;;;;;25.04;30.16;95502.44;6128214;23;20199;-87
2023/06/16 16:59:11;;;;;;;5.32;3.30;;;;;;;24.96;29.98;95508.25;6127740;23;20183;-89
2023/06/16 17:01:49;;;;;;;4.93;4.45;;;;;;;25.06;30.29;95502.16;6128523;23;20187;-88
2023/06/16 17:08:10;;;;;;;;;;;;;;;;;;;;;
2023/06/16 17:17:32;;;;;;;4.60;3.67;;;;;;;24.90;33.20;95509.28;6121966;23;20199;-89
2023/06/16 17:19:58;;;;;;;7.43;4.05;;;;;;;24.77;33.80;95515.94;6125020;23;20515;-88
2023/06/16 17:22:28;;;;;;;6.45;4.40;;;;;;;24.79;33.69;95513.03;6122861;23;20276;-88
2023/06/16 17:31:01;;;;;;;5.93;4.10;;;;;;;24.47;33.97;95525.72;6049426;23;20178;-87
2023/06/16 17:33:57;;;;;;;8.27;3.50;;;;;;;24.49;34.49;95526.22;6123941;23;20670;-88
2023/06/16 17:36:26;;;;;;;4.13;3.60;;;;;;;24.45;34.87;95528.59;6117236;23;20620;-87
2023/06/16 17:39:23;;;;;;;8.43;4.38;;;;;;;24.44;35.48;95530.44;6122093;23;20179;-89
2023/06/16 17:41:58;;;;;;;10.70;4.13;;;;;;;24.35;36.04;95532.03;6113076;23;20207;-88
2023/06/16 17:48:28;;;;;;;5.95;4.32;;;;;;;24.34;35.97;95534.94;5918525;24;20663;-88
2023/06/16 18:09:37;;;;;;;9.20;7.05;;;;;;;23.54;37.35;95555.56;6119636;23;20178;-90
2023/06/16 18:12:39;;;;;;;4.53;3.90;;;;;;;23.39;37.77;95561.53;6120250;23;20182;-89
2023/06/16 18:15:16;;;;;;;;;;;;;;;;;;;;;
2023/06/16 18:28:54;;;;;;;3.85;3.22;;;;;;;23.21;37.07;95562.00;5952865;23;20256;-90
2023/06/16 18:31:57;;;;;;;4.03;3.67;;;;;;;23.20;37.82;95570.13;6022292;23;20771;-89
2023/06/16 18:37:19;;;;;;;5.20;4.70;;;;;;;23.24;36.95;95574.63;6028924;23;20208;-90
2023/06/16 18:40:10;;;;;;;4.40;4.00;;;;;;;23.22;37.04;95581.97;6113544;23;20522;-90
2023/06/16 18:42:37;;;;;;;6.32;4.00;;;;;;;23.16;37.13;95577.72;6120218;23;20261;-89
2023/06/16 18:45:29;;;;;;;5.05;4.40;;;;;;;23.08;37.58;95572.97;6120855;23;20198;-89
2023/06/16 19:07:30;;;;;;;3.90;3.10;;;;;;;22.68;38.02;95571.66;5997295;23;20209;-89
2023/06/16 19:13:56;;;;;;;3.40;2.80;;;;;;;22.63;38.46;95570.84;5946072;24;20283;-89
2023/06/16 19:17:23;;;;;;;4.07;2.95;;;;;;;22.72;38.29;95575.34;5946400;24;20226;-89
2023/06/16 20:18:20;;;;;;;5.63;4.22;;;;;;;22.35;41.36;95638.31;6118648;23;20211;-89
2023/06/16 22:30:06;;;;;;;4.53;4.10;;;;;;;21.53;44.39;95609.66;5909088;24;20767;-89
2023/06/16 22:32:44;;;;;;;4.40;4.10;;;;;;;21.44;44.53;95603.22;5974452;24;20365;-89
2023/06/16 22:35:16;;;;;;;4.85;4.45;;;;;;;21.33;44.61;95602.34;5975060;23;20570;-88
2023/06/16 22:37:45;;;;;;;4.90;4.50;;;;;;;21.27;44.72;95599.88;6037342;23;20204;-89
2023/06/16 22:40:26;;;;;;;4.50;4.10;;;;;;;21.20;44.99;95597.44;6091465;23;20198;-89
2023/06/16 22:43:02;;;;;;;4.68;4.20;;;;;;;21.07;45.24;95603.00;6092270;23;20372;-89
2023/06/16 22:45:43;;;;;;;4.88;4.40;;;;;;;21.09;45.24;95603.56;6091965;23;20235;-89
2023/06/16 22:48:11;;;;;;;5.00;4.25;;;;;;;21.16;44.86;95606.00;6092615;23;20156;-89
2023/06/16 22:50:38;;;;;;;4.68;4.28;;;;;;;21.01;45.35;95607.38;6091610;23;20509;-89
2023/06/16 22:53:13;;;;;;;5.50;4.53;;;;;;;20.94;45.38;95603.34;6092678;23;20177;-89
2023/06/16 22:55:47;;;;;;;5.57;4.63;;;;;;;21.03;45.25;95599.28;6093623;23;20199;-89
2023/06/16 22:58:13;;;;;;;5.53;4.93;;;;;;;21.03;45.38;95601.88;6093615;23;20219;-89
2023/06/16 23:00:44;;;;;;;4.90;4.50;;;;;;;21.03;45.55;95602.69;6094130;23;20180;-88
2023/06/16 23:03:14;;;;;;;4.88;4.47;;;;;;;20.99;45.45;95603.41;6094497;23;20187;-89
2023/06/16 23:05:43;;;;;;;5.18;4.68;;;;;;;21.04;45.37;95603.47;6094381;23;20883;-89